Time;durP1;ratioP1;P1;durP2;ratioP2;P2;SDS_P1;SDS_P2;PMS_P1;PMS_P2;Temp;Humidity;BMP_temperature;BMP_pressure;BME280_temperature;BME280_humidity;BME280_pressure;Samples;Min_cycle;Max_cycle;Signal;HPM_P1;HPM_P2
2022/07/04 00:00:27;;;;;;;0.28;0.00;;;13.90;99.90;;;;;;5034374;28;20461;-73
2022/07/04 00:02:55;;;;;;;0.60;0.05;;;13.80;99.90;;;;;;5031590;28;20305;-77
2022/07/04 00:05:22;;;;;;;1.20;0.20;;;13.80;99.90;;;;;;5033747;28;20033;-76
2022/07/04 00:07:50;;;;;;;0.00;0.00;;;13.70;99.90;;;;;;5030890;28;20623;-75
2022/07/04 00:10:23;;;;;;;0.75;0.00;;;13.70;99.90;;;;;;5035998;28;20049;-78
2022/07/04 00:12:51;;;;;;;0.13;0.10;;;13.70;99.90;;;;;;5031349;28;20552;-73
2022/07/04 00:15:18;;;;;;;0.65;0.00;;;13.60;99.90;;;;;;5032407;28;20474;-77
2022/07/04 00:17:45;;;;;;;0.38;0.10;;;13.60;99.90;;;;;;5029481;28;20021;-78
2022/07/04 00:20:13;;;;;;;0.52;0.03;;;13.60;99.90;;;;;;5033503;28;20100;-78
2022/07/04 00:22:40;;;;;;;0.10;0.00;;;13.60;99.90;;;;;;5029607;28;20021;-77
2022/07/04 00:25:08;;;;;;;0.00;0.00;;;13.60;99.90;;;;;;5029717;28;20021;-76
2022/07/04 00:27:35;;;;;;;0.17;0.00;;;13.60;99.90;;;;;;5046622;28;20056;-77
2022/07/04 00:30:04;;;;;;;0.65;0.08;;;13.70;99.90;;;;;;5048677;28;20129;-75
2022/07/04 00:32:31;;;;;;;0.00;0.00;;;13.70;99.90;;;;;;5042997;28;20029;-76
2022/07/04 00:34:59;;;;;;;0.28;0.00;;;13.80;99.90;;;;;;5033360;28;20037;-78
2022/07/04 00:37:26;;;;;;;0.00;0.00;;;13.80;99.90;;;;;;5030348;28;20099;-78
2022/07/04 00:39:55;;;;;;;0.20;0.10;;;13.80;99.90;;;;;;5037776;28;20021;-78
2022/07/04 00:42:22;;;;;;;0.30;0.10;;;13.90;99.90;;;;;;5039532;28;20143;-77
2022/07/04 00:44:49;;;;;;;1.35;1.20;;;14.00;99.90;;;;;;5037670;28;20047;-76
2022/07/04 00:47:17;;;;;;;0.10;0.00;;;14.00;99.90;;;;;;5045059;28;20170;-78
2022/07/04 00:49:44;;;;;;;0.00;0.00;;;13.90;99.90;;;;;;5045006;28;20119;-80
2022/07/04 00:52:13;;;;;;;1.23;1.08;;;13.90;99.90;;;;;;5047246;28;20041;-81
2022/07/04 00:54:41;;;;;;;0.15;0.10;;;13.90;99.90;;;;;;5043284;28;20025;-73
2022/07/04 00:57:09;;;;;;;0.30;0.10;;;13.90;99.90;;;;;;5045469;28;20021;-79
2022/07/04 00:59:36;;;;;;;0.10;0.10;;;13.90;99.90;;;;;;5044964;28;20029;-75
2022/07/04 01:02:03;;;;;;;0.20;0.20;;;13.90;99.90;;;;;;5054820;28;20021;-79
2022/07/04 01:04:31;;;;;;;0.40;0.00;;;13.90;99.90;;;;;;5031229;28;20032;-77
2022/07/04 01:06:58;;;;;;;0.10;0.10;;;13.90;99.90;;;;;;5039424;28;20025;-78
2022/07/04 01:09:25;;;;;;;0.10;0.00;;;13.90;99.90;;;;;;5049878;28;20036;-78
2022/07/04 01:11:53;;;;;;;0.00;0.00;;;14.00;99.90;;;;;;5037442;28;20035;-77
2022/07/04 01:14:20;;;;;;;0.35;0.35;;;14.00;99.90;;;;;;5034041;28;20021;-76
2022/07/04 01:16:47;;;;;;;0.20;0.00;;;14.00;99.90;;;;;;5050440;28;20478;-78
2022/07/04 01:19:15;;;;;;;0.10;0.10;;;14.10;99.90;;;;;;5034023;28;20026;-79
2022/07/04 01:21:42;;;;;;;0.00;0.00;;;14.20;99.90;;;;;;5051417;28;20466;-79
2022/07/04 01:24:15;;;;;;;0.13;0.08;;;14.10;99.90;;;;;;5074113;28;20367;-73
2022/07/04 01:26:42;;;;;;;0.05;0.00;;;14.20;99.90;;;;;;5050308;28;20048;-76
2022/07/04 01:29:09;;;;;;;0.30;0.10;;;14.20;99.90;;;;;;5053604;28;20048;-75
2022/07/04 01:31:37;;;;;;;0.00;0.00;;;14.20;99.90;;;;;;5044917;28;20016;-75
2022/07/04 01:34:04;;;;;;;0.03;0.00;;;14.10;99.90;;;;;;5035700;28;20447;-79
2022/07/04 01:36:31;;;;;;;0.00;0.00;;;14.10;99.90;;;;;;5047261;28;20045;-78
2022/07/04 01:39:01;;;;;;;0.00;0.00;;;14.10;99.90;;;;;;5073606;28;20394;-76
2022/07/04 01:41:34;;;;;;;0.10;0.10;;;14.10;99.90;;;;;;5053765;28;20102;-77
2022/07/04 01:44:02;;;;;;;0.20;0.10;;;14.20;99.90;;;;;;5037520;28;20104;-78
2022/07/04 01:46:30;;;;;;;0.10;0.10;;;14.20;99.90;;;;;;5045548;28;20038;-76
2022/07/04 01:48:57;;;;;;;0.03;0.03;;;14.20;99.90;;;;;;5037247;28;20029;-82
2022/07/04 01:51:24;;;;;;;0.20;0.20;;;14.20;99.90;;;;;;5041837;28;20025;-72
2022/07/04 01:53:51;;;;;;;0.10;0.10;;;14.20;99.90;;;;;;5043581;28;20047;-76
2022/07/04 01:56:19;;;;;;;0.03;0.00;;;14.20;99.90;;;;;;5048754;28;20027;-76
2022/07/04 01:58:46;;;;;;;0.10;0.10;;;14.20;99.90;;;;;;5052338;28;20489;-74
2022/07/04 02:01:32;;;;;;;0.00;0.00;;;14.20;99.90;;;;;;5055016;28;20033;-76
2022/07/04 02:04:03;;;;;;;0.03;0.00;;;14.30;99.90;;;;;;5065268;28;20044;-73
2022/07/04 02:06:32;;;;;;;0.13;0.08;;;14.30;99.90;;;;;;5045858;28;20025;-73
2022/07/04 02:09:18;;;;;;;0.00;0.00;;;14.40;99.90;;;;;;5032942;28;20033;-74
2022/07/04 02:14:33;;;;;;;0.05;0.00;;;14.50;99.90;;;;;;5039944;28;20031;-72
2022/07/04 02:17:00;;;;;;;0.00;0.00;;;14.50;99.90;;;;;;5050225;28;20037;-75
2022/07/04 02:19:28;;;;;;;0.00;0.00;;;14.50;99.90;;;;;;5063602;28;20025;-73
2022/07/04 02:21:55;;;;;;;0.30;0.10;;;14.60;99.90;;;;;;5037077;28;20040;-76
2022/07/04 02:24:23;;;;;;;0.50;0.20;;;14.70;99.90;;;;;;5039983;28;20115;-78
2022/07/04 02:26:50;;;;;;;0.20;0.10;;;14.70;99.90;;;;;;5048684;28;20107;-80
2022/07/04 02:29:18;;;;;;;0.85;0.10;;;14.70;99.90;;;;;;5052575;28;20033;-77
2022/07/04 02:31:45;;;;;;;0.35;0.00;;;14.70;99.90;;;;;;5034776;28;20012;-82
2022/07/04 02:34:12;;;;;;;0.52;0.10;;;14.60;99.90;;;;;;5056471;28;20036;-77
2022/07/04 02:36:40;;;;;;;0.10;0.08;;;14.60;99.90;;;;;;5034852;28;20056;-75
2022/07/04 02:39:07;;;;;;;0.10;0.10;;;14.60;99.90;;;;;;5036769;28;20033;-74
2022/07/04 02:41:35;;;;;;;0.20;0.13;;;14.50;99.90;;;;;;5035545;28;20045;-74
2022/07/04 02:44:02;;;;;;;0.10;0.00;;;14.60;99.90;;;;;;5029622;28;21605;-74
2022/07/04 02:46:32;;;;;;;0.20;0.15;;;14.60;99.90;;;;;;5043245;28;20017;-73
2022/07/04 02:49:01;;;;;;;0.60;0.30;;;14.70;99.90;;;;;;5029354;28;20039;-77
2022/07/04 02:51:28;;;;;;;0.20;0.20;;;14.70;99.90;;;;;;5043656;28;20033;-76
2022/07/04 02:53:56;;;;;;;1.02;0.50;;;14.80;99.90;;;;;;5033474;28;20518;-78
2022/07/04 02:56:24;;;;;;;0.95;0.30;;;14.80;99.90;;;;;;5034789;28;20036;-79
2022/07/04 02:58:51;;;;;;;0.10;0.00;;;14.70;99.90;;;;;;5032324;28;20043;-77
2022/07/04 03:01:19;;;;;;;1.25;0.77;;;14.70;99.90;;;;;;5044067;28;20025;-77
2022/07/04 03:03:47;;;;;;;0.10;0.10;;;14.60;99.90;;;;;;5053962;28;20139;-75
2022/07/04 03:06:15;;;;;;;0.17;0.10;;;14.50;99.90;;;;;;5051289;28;20074;-76
2022/07/04 03:08:42;;;;;;;0.15;0.15;;;14.50;99.90;;;;;;5037495;28;20128;-76
2022/07/04 03:11:10;;;;;;;0.30;0.13;;;14.50;99.90;;;;;;5037420;28;20036;-77
2022/07/04 03:13:39;;;;;;;0.30;0.30;;;14.60;99.90;;;;;;5053842;28;20037;-76
2022/07/04 03:16:06;;;;;;;2.03;0.10;;;14.60;99.90;;;;;;5051613;28;20455;-76
2022/07/04 03:18:34;;;;;;;0.50;0.20;;;14.60;99.90;;;;;;5048355;28;20199;-76
2022/07/04 03:21:04;;;;;;;0.50;0.30;;;14.50;99.90;;;;;;5046416;28;20028;-77
2022/07/04 03:23:33;;;;;;;0.13;0.10;;;14.70;99.90;;;;;;5049431;28;20498;-74
2022/07/04 03:26:01;;;;;;;0.98;0.10;;;14.90;99.90;;;;;;5039770;28;20114;-75
2022/07/04 03:28:28;;;;;;;0.00;0.00;;;14.90;99.90;;;;;;5046156;28;20028;-78
2022/07/04 03:30:56;;;;;;;0.85;0.43;;;14.90;99.90;;;;;;5047889;28;20040;-76
2022/07/04 03:33:23;;;;;;;1.20;0.10;;;14.90;99.90;;;;;;5039083;28;20043;-78
2022/07/04 03:35:51;;;;;;;0.10;0.10;;;14.80;99.90;;;;;;5039623;28;20029;-75
2022/07/04 03:38:18;;;;;;;0.32;0.17;;;14.80;99.90;;;;;;5058649;28;20025;-75
2022/07/04 03:40:45;;;;;;;0.40;0.20;;;14.80;99.90;;;;;;5045774;28;20450;-79
2022/07/04 03:43:13;;;;;;;0.55;0.10;;;14.70;99.90;;;;;;5050198;28;20111;-75
2022/07/04 03:45:40;;;;;;;0.20;0.20;;;14.70;99.90;;;;;;5040643;28;20024;-76
2022/07/04 03:48:07;;;;;;;0.57;0.40;;;14.70;99.90;;;;;;5060682;28;20064;-79
2022/07/04 03:50:35;;;;;;;0.20;0.20;;;14.80;99.90;;;;;;5046879;28;20075;-79
2022/07/04 03:53:02;;;;;;;0.10;0.10;;;14.80;99.90;;;;;;5034733;28;20072;-79
2022/07/04 03:55:30;;;;;;;0.17;0.17;;;14.90;99.90;;;;;;5032174;28;20131;-75
2022/07/04 03:57:57;;;;;;;0.32;0.10;;;14.90;99.90;;;;;;5032483;28;20443;-74
2022/07/04 04:00:24;;;;;;;0.30;0.30;;;14.90;99.90;;;;;;5030368;28;20068;-76
2022/07/04 04:02:52;;;;;;;0.73;0.30;;;14.90;99.90;;;;;;5031722;28;20052;-77
2022/07/04 04:05:30;;;;;;;0.10;0.10;;;14.90;99.90;;;;;;5033569;28;20160;-76
2022/07/04 04:07:59;;;;;;;1.23;0.30;;;14.90;99.90;;;;;;5031416;28;20478;-79
2022/07/04 04:10:30;;;;;;;0.10;0.10;;;14.90;99.90;;;;;;5031884;28;20030;-78
2022/07/04 04:12:58;;;;;;;0.70;0.40;;;14.90;99.90;;;;;;5045182;28;20110;-75
2022/07/04 04:15:25;;;;;;;0.10;0.10;;;14.80;99.90;;;;;;5034163;28;20359;-77
2022/07/04 04:17:53;;;;;;;2.92;1.65;;;14.80;99.90;;;;;;5038142;28;20407;-76
2022/07/04 04:20:20;;;;;;;9.02;4.75;;;14.80;99.90;;;;;;5036808;28;20098;-77
2022/07/04 04:22:49;;;;;;;8.13;4.20;;;14.80;99.90;;;;;;5039902;28;20032;-77
2022/07/04 04:25:18;;;;;;;59.20;29.17;;;14.70;99.90;;;;;;5030607;28;20029;-74
2022/07/04 04:27:45;;;;;;;93.13;48.33;;;14.70;99.90;;;;;;5037765;28;20585;-77
2022/07/04 04:30:13;;;;;;;34.83;21.90;;;14.70;99.90;;;;;;5033427;28;20033;-73
2022/07/04 04:32:40;;;;;;;6.57;4.53;;;14.60;99.90;;;;;;5032679;28;20032;-74
2022/07/04 04:35:08;;;;;;;8.05;5.50;;;14.60;99.90;;;;;;5033018;28;20467;-74
2022/07/04 04:37:35;;;;;;;12.93;7.50;;;14.50;99.90;;;;;;5031385;28;20427;-74
2022/07/04 04:40:03;;;;;;;6.60;3.97;;;14.50;99.90;;;;;;5032735;28;20045;-79
2022/07/04 04:42:30;;;;;;;31.63;19.63;;;14.40;99.90;;;;;;5031634;28;20036;-75
2022/07/04 04:44:57;;;;;;;29.15;18.45;;;14.40;99.90;;;;;;5037077;28;20029;-78
2022/07/04 04:47:25;;;;;;;16.98;12.43;;;14.40;99.90;;;;;;5041546;28;20056;-76
2022/07/04 04:49:52;;;;;;;6.88;4.75;;;14.30;99.90;;;;;;5038166;28;20037;-76
2022/07/04 04:52:19;;;;;;;7.32;5.55;;;14.30;99.90;;;;;;5034191;28;20052;-76
2022/07/04 04:54:47;;;;;;;2.00;1.90;;;14.30;99.90;;;;;;5032957;28;20120;-81
2022/07/04 04:57:14;;;;;;;6.13;3.63;;;14.30;99.90;;;;;;5033181;28;20017;-76
2022/07/04 04:59:41;;;;;;;11.52;6.70;;;14.30;99.90;;;;;;5035737;28;20021;-73
2022/07/04 05:02:09;;;;;;;19.17;12.75;;;14.20;99.90;;;;;;5043649;28;20471;-78
2022/07/04 05:04:36;;;;;;;19.67;13.70;;;14.20;99.90;;;;;;5034481;28;20174;-76
2022/07/04 05:07:04;;;;;;;9.70;6.93;;;14.20;99.90;;;;;;5038554;28;20036;-78
2022/07/04 05:09:31;;;;;;;3.70;2.70;;;14.20;99.90;;;;;;5057897;28;20082;-75
2022/07/04 05:11:58;;;;;;;1.00;0.68;;;14.30;99.90;;;;;;5038139;28;20140;-76
2022/07/04 05:14:26;;;;;;;0.20;0.20;;;14.20;99.90;;;;;;5043613;28;20088;-74
2022/07/04 05:16:53;;;;;;;0.17;0.10;;;14.20;99.90;;;;;;5036515;28;20444;-77
2022/07/04 05:19:20;;;;;;;0.70;0.10;;;14.20;99.90;;;;;;5034518;28;20156;-73
2022/07/04 05:21:48;;;;;;;0.35;0.30;;;14.20;99.90;;;;;;5037995;28;20033;-73
2022/07/04 05:24:16;;;;;;;0.20;0.10;;;14.20;99.90;;;;;;5035077;28;20036;-76
2022/07/04 05:26:43;;;;;;;0.10;0.10;;;14.20;99.90;;;;;;5032330;28;20024;-73
2022/07/04 05:29:11;;;;;;;0.73;0.30;;;14.20;99.90;;;;;;5031984;28;20140;-76
2022/07/04 05:31:39;;;;;;;0.15;0.10;;;14.20;99.90;;;;;;5038161;28;20774;-72
2022/07/04 05:34:06;;;;;;;1.38;0.28;;;14.20;99.90;;;;;;5050001;28;20085;-76
2022/07/04 05:36:33;;;;;;;0.20;0.00;;;14.20;99.90;;;;;;5043915;28;20029;-73
2022/07/04 05:39:01;;;;;;;0.65;0.00;;;14.20;99.90;;;;;;5034398;28;20029;-74
2022/07/04 05:41:28;;;;;;;0.00;0.00;;;14.10;99.90;;;;;;5045323;28;20029;-77
2022/07/04 05:43:55;;;;;;;0.03;0.00;;;14.10;99.90;;;;;;5047139;28;20021;-76
2022/07/04 05:46:23;;;;;;;1.58;0.00;;;14.10;99.90;;;;;;5045058;28;20395;-78
2022/07/04 05:48:50;;;;;;;0.25;0.08;;;14.00;99.90;;;;;;5044864;28;21836;-79
2022/07/04 05:51:17;;;;;;;0.00;0.00;;;14.00;99.90;;;;;;5035770;28;20152;-78
2022/07/04 05:53:44;;;;;;;0.00;0.00;;;14.00;99.90;;;;;;5032224;28;20053;-81
2022/07/04 05:56:12;;;;;;;0.43;0.00;;;14.00;99.90;;;;;;5036769;28;20029;-79
2022/07/04 05:58:40;;;;;;;1.90;0.17;;;14.00;99.90;;;;;;5032738;28;20453;-74
2022/07/04 06:01:08;;;;;;;0.35;0.10;;;13.90;99.90;;;;;;5037297;28;20021;-72
2022/07/04 06:03:38;;;;;;;0.63;0.00;;;13.90;99.90;;;;;;5032696;28;20043;-75
2022/07/04 06:06:06;;;;;;;0.10;0.10;;;13.90;99.90;;;;;;5033317;28;20084;-75
2022/07/04 06:08:34;;;;;;;0.20;0.10;;;13.90;99.90;;;;;;5032986;28;20410;-77
2022/07/04 06:11:03;;;;;;;0.40;0.20;;;13.80;99.90;;;;;;5033372;28;20041;-74
2022/07/04 06:13:30;;;;;;;2.05;0.10;;;13.80;99.90;;;;;;5034573;28;20032;-76
2022/07/04 06:15:58;;;;;;;0.95;0.10;;;13.80;99.90;;;;;;5033528;28;20030;-72
2022/07/04 06:18:27;;;;;;;1.10;0.10;;;13.80;99.90;;;;;;5033282;28;20017;-77
2022/07/04 06:20:54;;;;;;;0.03;0.00;;;13.80;99.90;;;;;;5040679;28;20020;-75
2022/07/04 06:23:21;;;;;;;0.20;0.10;;;13.80;99.90;;;;;;5051632;28;20032;-75
2022/07/04 06:25:49;;;;;;;0.03;0.00;;;13.80;99.90;;;;;;5043064;28;20022;-73
2022/07/04 06:28:17;;;;;;;0.10;0.00;;;13.80;99.90;;;;;;5050145;28;20450;-74
2022/07/04 06:30:44;;;;;;;0.08;0.08;;;13.80;99.90;;;;;;5044220;28;20073;-75
2022/07/04 06:33:12;;;;;;;1.25;0.25;;;13.80;99.90;;;;;;5057748;28;20025;-75
2022/07/04 06:35:45;;;;;;;1.23;0.05;;;13.70;99.90;;;;;;5064296;28;20438;-76
2022/07/04 06:38:22;;;;;;;0.10;0.00;;;13.80;99.90;;;;;;5066095;28;20032;-78
2022/07/04 06:40:53;;;;;;;0.75;0.15;;;13.70;99.90;;;;;;5040586;28;20029;-78
2022/07/04 06:43:20;;;;;;;0.10;0.10;;;13.70;99.90;;;;;;5051701;28;20387;-76
2022/07/04 06:45:48;;;;;;;0.10;0.00;;;13.70;99.90;;;;;;5041547;28;20025;-74
2022/07/04 06:48:15;;;;;;;6.30;3.33;;;13.70;99.90;;;;;;5049893;28;20025;-76
2022/07/04 06:50:43;;;;;;;13.65;8.43;;;13.70;99.90;;;;;;5034999;28;20057;-76
2022/07/04 06:53:11;;;;;;;12.15;6.70;;;13.70;99.90;;;;;;5049126;28;20059;-75
2022/07/04 06:55:39;;;;;;;14.48;9.60;;;13.70;99.90;;;;;;5046993;28;20033;-71
2022/07/04 06:58:08;;;;;;;4.18;2.20;;;13.70;99.90;;;;;;5044823;28;20033;-76
2022/07/04 07:00:36;;;;;;;7.47;3.65;;;13.60;99.90;;;;;;5036479;28;20035;-77
2022/07/04 07:03:04;;;;;;;5.55;3.47;;;13.60;99.90;;;;;;5036294;28;20491;-76
2022/07/04 07:05:32;;;;;;;3.38;2.45;;;13.60;99.90;;;;;;5035306;28;20032;-76
2022/07/04 07:08:00;;;;;;;5.63;4.35;;;13.60;99.90;;;;;;5034453;28;20285;-76
2022/07/04 07:10:27;;;;;;;5.95;3.63;;;13.60;99.90;;;;;;5036752;28;20041;-80
2022/07/04 07:12:54;;;;;;;2.80;2.05;;;13.60;99.90;;;;;;5043224;28;20478;-75
2022/07/04 07:15:22;;;;;;;2.15;1.83;;;13.60;99.90;;;;;;5048634;28;20025;-76
2022/07/04 07:17:49;;;;;;;4.05;3.03;;;13.60;99.90;;;;;;5047134;28;20029;-76
2022/07/04 07:20:17;;;;;;;7.25;3.80;;;13.50;99.90;;;;;;5031532;28;20025;-76
2022/07/04 07:22:44;;;;;;;2.08;1.27;;;13.50;99.90;;;;;;5034153;28;20029;-73
2022/07/04 07:25:12;;;;;;;0.30;0.30;;;13.40;99.90;;;;;;5041480;28;20021;-77
2022/07/04 07:27:41;;;;;;;1.02;0.57;;;13.40;99.90;;;;;;5034525;28;20033;-75
2022/07/04 07:30:08;;;;;;;0.90;0.88;;;13.40;99.90;;;;;;5029997;28;20037;-73
2022/07/04 07:32:36;;;;;;;0.50;0.40;;;13.40;99.90;;;;;;5031820;28;20045;-77
2022/07/04 07:35:03;;;;;;;2.60;1.90;;;13.40;99.90;;;;;;5031287;28;20997;-78
2022/07/04 07:37:31;;;;;;;3.65;2.75;;;13.30;99.90;;;;;;5034624;28;20030;-74
2022/07/04 07:39:58;;;;;;;5.78;5.18;;;13.30;99.90;;;;;;5028898;28;20041;-77
2022/07/04 07:42:26;;;;;;;5.47;3.90;;;13.30;99.90;;;;;;5037122;28;20029;-76
2022/07/04 07:44:53;;;;;;;16.08;14.13;;;13.20;99.90;;;;;;5041575;28;20048;-75
2022/07/04 07:47:20;;;;;;;17.13;13.07;;;13.20;99.90;;;;;;5029662;28;20034;-76
2022/07/04 07:49:48;;;;;;;6.82;5.80;;;13.20;99.90;;;;;;5033876;28;20114;-77
2022/07/04 07:52:16;;;;;;;4.20;3.58;;;13.20;99.90;;;;;;4928912;28;2858568;-76
2022/07/04 07:54:43;;;;;;;6.63;5.00;;;13.20;99.90;;;;;;5040260;28;20025;-76
2022/07/04 07:57:10;;;;;;;5.00;3.13;;;13.10;99.90;;;;;;5029373;28;20030;-75
2022/07/04 07:59:38;;;;;;;1.83;1.52;;;13.10;99.90;;;;;;5031786;28;20116;-77
2022/07/04 08:02:05;;;;;;;1.00;0.77;;;13.10;99.90;;;;;;5030548;28;20391;-75
2022/07/04 08:04:35;;;;;;;2.92;2.55;;;13.10;99.90;;;;;;5044804;28;20029;-76
2022/07/04 08:07:04;;;;;;;1.35;1.23;;;13.10;99.90;;;;;;5031671;28;20044;-74
2022/07/04 08:09:33;;;;;;;4.70;2.17;;;13.10;99.90;;;;;;5037182;28;20037;-76
2022/07/04 08:12:01;;;;;;;0.20;0.10;;;13.00;99.90;;;;;;5034403;28;20468;-72
2022/07/04 08:14:29;;;;;;;0.77;0.50;;;13.00;99.90;;;;;;5031633;28;20437;-72
2022/07/04 08:16:57;;;;;;;1.42;0.80;;;13.00;99.90;;;;;;5031125;28;20029;-77
2022/07/04 08:19:26;;;;;;;1.92;1.35;;;13.00;99.90;;;;;;5030623;28;20033;-76
2022/07/04 08:21:54;;;;;;;2.88;0.60;;;13.00;99.90;;;;;;5031734;28;20021;-74
2022/07/04 08:24:22;;;;;;;4.70;1.10;;;13.00;99.90;;;;;;5031523;28;20036;-78
2022/07/04 08:26:49;;;;;;;3.80;0.98;;;12.90;99.90;;;;;;5044181;28;20343;-74
2022/07/04 08:29:16;;;;;;;0.93;0.50;;;12.90;99.90;;;;;;5032553;28;20106;-76
2022/07/04 08:31:44;;;;;;;0.50;0.30;;;12.90;99.90;;;;;;5034663;28;21973;-75
2022/07/04 08:34:11;;;;;;;1.02;0.20;;;12.90;99.90;;;;;;5031041;28;20028;-76
2022/07/04 08:36:38;;;;;;;2.42;0.30;;;12.90;99.90;;;;;;5032287;28;20056;-72
2022/07/04 08:39:06;;;;;;;0.63;0.30;;;12.80;99.90;;;;;;5029548;28;20021;-75
2022/07/04 08:41:38;;;;;;;0.57;0.20;;;12.90;99.90;;;;;;5032613;28;20064;-75
2022/07/04 08:44:10;;;;;;;0.40;0.22;;;12.80;99.90;;;;;;5030028;28;20182;-74
2022/07/04 08:46:41;;;;;;;2.55;0.50;;;12.80;99.90;;;;;;5030217;28;20119;-75
2022/07/04 08:49:20;;;;;;;0.63;0.63;;;12.80;99.90;;;;;;5030603;28;20033;-75
2022/07/04 08:52:03;;;;;;;0.40;0.32;;;12.80;99.90;;;;;;5031767;28;20121;-79
2022/07/04 09:00:06;;;;;;;1.50;0.40;;;12.80;99.90;;;;;;5035109;28;20044;-77
2022/07/04 09:02:37;;;;;;;0.32;0.15;;;12.80;99.90;;;;;;5042246;28;20037;-76
2022/07/04 09:05:09;;;;;;;0.75;0.30;;;12.80;99.90;;;;;;5026740;28;20025;-75
2022/07/04 09:07:36;;;;;;;3.20;0.63;;;12.80;99.90;;;;;;5036526;28;20112;-76
2022/07/04 09:10:04;;;;;;;0.20;0.20;;;12.80;99.90;;;;;;5036860;28;20056;-78
2022/07/04 09:12:31;;;;;;;0.30;0.17;;;12.80;99.90;;;;;;5034941;28;20108;-82
2022/07/04 09:14:59;;;;;;;0.10;0.10;;;12.80;99.90;;;;;;5032860;28;20033;-83
2022/07/04 09:17:27;;;;;;;0.47;0.13;;;12.80;99.90;;;;;;5041287;28;20029;-83
2022/07/04 09:20:22;;;;;;;0.85;0.08;;;12.90;99.90;;;;;;5046187;28;20029;-80
2022/07/04 09:22:52;;;;;;;0.75;0.10;;;12.90;99.90;;;;;;5040047;28;20483;-81
2022/07/04 09:25:20;;;;;;;0.10;0.10;;;12.90;99.90;;;;;;5029084;28;20041;-81
2022/07/04 09:27:50;;;;;;;0.32;0.10;;;13.00;99.90;;;;;;5020999;28;20455;-83
2022/07/04 09:30:24;;;;;;;0.10;0.10;;;12.90;99.90;;;;;;5030339;28;20081;-78
2022/07/04 09:33:04;;;;;;;1.70;0.10;;;12.90;99.90;;;;;;5030673;28;20036;-79
2022/07/04 09:35:33;;;;;;;0.63;0.63;;;12.90;99.90;;;;;;5031812;28;20649;-81
2022/07/04 09:38:04;;;;;;;0.75;0.20;;;13.00;99.90;;;;;;5035060;28;20029;-81
2022/07/04 09:40:33;;;;;;;0.50;0.10;;;12.90;99.90;;;;;;5035223;28;20039;-80
2022/07/04 09:43:10;;;;;;;0.65;0.40;;;13.00;99.90;;;;;;5030297;28;20029;-79
2022/07/04 09:45:54;;;;;;;0.40;0.25;;;12.90;99.90;;;;;;5039997;28;20041;-78
2022/07/04 09:48:22;;;;;;;0.47;0.30;;;12.90;99.90;;;;;;5034491;28;20042;-82
2022/07/04 09:50:50;;;;;;;0.35;0.32;;;12.90;99.90;;;;;;5049613;28;20040;-80
2022/07/04 09:53:17;;;;;;;0.20;0.10;;;12.90;99.90;;;;;;5051509;28;20037;-78
2022/07/04 09:55:49;;;;;;;2.25;0.30;;;12.90;99.90;;;;;;5050629;28;20037;-80
2022/07/04 09:58:17;;;;;;;0.30;0.30;;;13.00;99.90;;;;;;5048233;28;20021;-80
2022/07/04 10:00:46;;;;;;;0.40;0.40;;;13.00;99.90;;;;;;5050512;28;20048;-78
2022/07/04 10:03:28;;;;;;;1.05;0.40;;;13.00;99.90;;;;;;5064960;28;20026;-79
2022/07/04 10:06:06;;;;;;;2.10;0.38;;;13.00;99.90;;;;;;5034275;28;20487;-77
2022/07/04 10:08:34;;;;;;;0.20;0.20;;;12.90;99.90;;;;;;5033409;28;20128;-76
2022/07/04 10:11:03;;;;;;;0.10;0.10;;;12.90;99.90;;;;;;5031221;28;20131;-77
2022/07/04 10:13:31;;;;;;;0.90;0.77;;;12.90;99.90;;;;;;5032291;28;20026;-75
2022/07/04 10:15:59;;;;;;;0.25;0.10;;;12.90;99.90;;;;;;5032277;28;20033;-77
2022/07/04 10:18:27;;;;;;;0.43;0.10;;;12.90;99.90;;;;;;5031854;28;20021;-77
2022/07/04 10:20:56;;;;;;;0.45;0.20;;;12.90;99.90;;;;;;5031939;28;20021;-78
2022/07/04 10:23:30;;;;;;;0.25;0.25;;;12.90;99.90;;;;;;5035727;28;20087;-78
2022/07/04 10:25:58;;;;;;;1.35;0.10;;;12.90;99.90;;;;;;5033124;28;20034;-78
2022/07/04 10:28:26;;;;;;;0.30;0.20;;;12.90;99.90;;;;;;5017881;28;20425;-75
2022/07/04 10:30:56;;;;;;;0.08;0.08;;;12.90;99.90;;;;;;5031362;28;20033;-77
2022/07/04 10:33:30;;;;;;;0.43;0.20;;;12.90;99.90;;;;;;5031970;28;20479;-78
2022/07/04 10:36:14;;;;;;;0.15;0.10;;;12.90;99.90;;;;;;5030505;28;20115;-80
2022/07/04 10:39:01;;;;;;;0.40;0.25;;;12.90;99.90;;;;;;5032373;28;20045;-77
2022/07/04 10:41:28;;;;;;;;;;;12.90;99.90;;;;;;5030772;28;20025;-77
2022/07/04 10:44:09;;;;;;;0.10;0.00;;;12.90;99.90;;;;;;5045216;28;20325;-77
2022/07/04 10:46:37;;;;;;;1.35;0.00;;;12.90;99.90;;;;;;5033178;28;20083;-75
2022/07/04 10:49:18;;;;;;;0.75;0.10;;;12.80;99.90;;;;;;5032712;28;20047;-74
2022/07/04 10:51:47;;;;;;;0.30;0.10;;;12.80;99.90;;;;;;5029743;28;20029;-79
2022/07/04 10:54:37;;;;;;;0.95;0.10;;;12.80;99.90;;;;;;5049404;28;20083;-77
2022/07/04 10:57:11;;;;;;;0.20;0.20;;;12.80;99.90;;;;;;5031985;28;20036;-77
2022/07/04 10:59:39;;;;;;;0.28;0.10;;;12.80;99.90;;;;;;5033151;28;20097;-77
2022/07/04 11:02:09;;;;;;;0.85;0.10;;;12.80;99.90;;;;;;5034530;28;20030;-79
2022/07/04 11:04:47;;;;;;;0.60;0.10;;;12.90;99.90;;;;;;5032304;28;20034;-76
2022/07/04 11:07:16;;;;;;;0.43;0.20;;;12.80;99.90;;;;;;5032463;28;20071;-76
2022/07/04 11:09:44;;;;;;;0.43;0.10;;;12.90;99.90;;;;;;5033024;28;20072;-75
2022/07/04 11:12:14;;;;;;;0.32;0.10;;;12.80;99.90;;;;;;5032975;28;20033;-77
2022/07/04 11:14:48;;;;;;;1.10;0.28;;;12.80;99.90;;;;;;5034227;28;20081;-75
2022/07/04 11:17:21;;;;;;;0.50;0.10;;;12.90;99.90;;;;;;5032350;28;20025;-76
2022/07/04 11:19:53;;;;;;;2.05;0.43;;;12.80;99.90;;;;;;5029454;28;20052;-79
2022/07/04 11:22:24;;;;;;;0.30;0.20;;;12.80;99.90;;;;;;5033043;28;20040;-79
2022/07/04 11:24:53;;;;;;;1.15;0.13;;;12.90;99.90;;;;;;5031444;28;20043;-77
2022/07/04 11:27:22;;;;;;;2.30;0.10;;;12.90;99.90;;;;;;5049513;28;20434;-78
2022/07/04 11:29:51;;;;;;;0.20;0.10;;;12.90;99.90;;;;;;5037936;28;20041;-80
2022/07/04 11:32:29;;;;;;;0.10;0.10;;;12.90;99.90;;;;;;5047016;28;20082;-77
2022/07/04 11:34:57;;;;;;;2.05;0.00;;;12.90;99.90;;;;;;5029889;28;20044;-78
2022/07/04 11:37:24;;;;;;;0.22;0.10;;;12.90;99.90;;;;;;5034158;28;20029;-78
2022/07/04 11:45:52;;;;;;;0.10;0.10;;;12.90;99.90;;;;;;5028929;28;20432;-77
2022/07/04 11:48:29;;;;;;;1.10;0.20;;;12.90;99.90;;;;;;5040517;28;21190;-79
2022/07/04 11:50:56;;;;;;;0.50;0.20;;;12.90;99.90;;;;;;5030056;28;20041;-76
2022/07/04 11:53:23;;;;;;;1.13;0.20;;;12.90;99.90;;;;;;5026829;28;20045;-79
2022/07/04 11:56:00;;;;;;;1.10;0.28;;;12.90;99.90;;;;;;5031506;28;20045;-77
2022/07/04 11:58:44;;;;;;;1.58;0.20;;;12.90;99.90;;;;;;5032216;28;21647;-80
2022/07/04 12:01:11;;;;;;;0.57;0.13;;;13.00;99.90;;;;;;5030597;28;20060;-77
2022/07/04 12:03:39;;;;;;;0.50;0.22;;;12.90;99.90;;;;;;5032490;28;20032;-76
2022/07/04 12:06:06;;;;;;;2.47;0.20;;;12.90;99.90;;;;;;5038914;28;20112;-74
2022/07/04 12:08:34;;;;;;;0.57;0.08;;;12.90;99.90;;;;;;5028954;28;20025;-81
2022/07/04 12:11:01;;;;;;;0.30;0.20;;;12.90;99.90;;;;;;5033862;28;20118;-75
2022/07/04 12:13:30;;;;;;;0.10;0.03;;;12.90;99.90;;;;;;5030767;28;20028;-83
2022/07/04 12:15:58;;;;;;;1.45;0.68;;;12.90;99.90;;;;;;5038523;28;20408;-79
2022/07/04 12:18:32;;;;;;;1.38;0.20;;;12.90;99.90;;;;;;5062137;28;20052;-78
2022/07/04 12:21:22;;;;;;;2.15;0.20;;;12.90;99.90;;;;;;5050985;28;20421;-77
2022/07/04 12:23:57;;;;;;;1.13;0.22;;;12.90;99.90;;;;;;5041931;28;20060;-77
2022/07/04 12:26:24;;;;;;;2.17;0.30;;;12.90;99.90;;;;;;5035875;28;20025;-75
2022/07/04 12:28:51;;;;;;;2.53;0.50;;;12.90;99.90;;;;;;5035924;28;20037;-80
2022/07/04 12:31:19;;;;;;;0.50;0.30;;;12.90;99.90;;;;;;5043426;28;20075;-76
2022/07/04 12:33:56;;;;;;;1.05;0.10;;;13.00;99.90;;;;;;5041144;28;20108;-79
2022/07/04 12:36:23;;;;;;;1.98;0.30;;;12.90;99.90;;;;;;5060240;28;20025;-75
2022/07/04 12:38:51;;;;;;;1.38;0.10;;;12.90;99.90;;;;;;5031105;28;20033;-76
2022/07/04 12:41:29;;;;;;;6.00;0.30;;;13.00;99.90;;;;;;5039554;28;20029;-77
2022/07/04 12:43:58;;;;;;;1.40;0.20;;;12.90;99.90;;;;;;5036667;28;20030;-78
2022/07/04 12:46:25;;;;;;;3.72;0.43;;;13.00;99.90;;;;;;5036168;28;20052;-76
2022/07/04 12:48:53;;;;;;;2.15;0.30;;;13.00;99.90;;;;;;5037262;28;20443;-77
2022/07/04 12:51:23;;;;;;;1.30;0.40;;;12.90;99.90;;;;;;5036487;28;20623;-76
2022/07/04 12:53:53;;;;;;;4.93;0.55;;;13.00;99.90;;;;;;5037750;28;20104;-78
2022/07/04 12:56:34;;;;;;;1.83;0.30;;;13.00;99.90;;;;;;5043141;28;20029;-77
2022/07/04 12:59:11;;;;;;;1.00;0.17;;;13.00;99.90;;;;;;5063796;28;20028;-76
2022/07/04 13:01:40;;;;;;;2.05;1.05;;;13.00;99.90;;;;;;5053054;28;20024;-76
2022/07/04 13:04:07;;;;;;;1.65;0.30;;;13.00;99.90;;;;;;5037536;28;20029;-78
2022/07/04 13:06:35;;;;;;;4.45;0.50;;;13.00;99.90;;;;;;5051416;28;20033;-80
2022/07/04 13:09:07;;;;;;;8.80;1.20;;;13.00;99.90;;;;;;5050025;28;20095;-76